CAT441 EKCH-LOWW
Flight info
| Callsign | CAT441 |
|---|---|
| Flight time | 1h 20m |
| Altitude | 35000 |
| Route | SALLO M44 KOGIM DCT LUROS DCT HDO DCT EVIKU DCT BITSI DCT MIKOV MIKOV8W |
| Aircraft | B734/M-SDFHIRW/S |
Departure
| Time | 2026-04-24 14:29 |
|---|---|
| Airport | Copenhagen Kastrup Airport (EKCH) |
Arrival
| Time | 2026-04-24 15:50 |
|---|---|
| Airport | Vienna International Airport (LOWW) |
| Time | Latitude | Longitude | Altitude | Speed | Heading |
|---|---|---|---|---|---|
| 2026-04-24 13:57 | 55.62889 | 12.63933 | 24 ft | 0 kts | 13° |
| 2026-04-24 14:15 | 55.62877 | 12.63927 | 26 ft | 3 kts | 21° |
| 2026-04-24 14:15 | 55.62861 | 12.63917 | 25 ft | 3 kts | 21° |
| 2026-04-24 14:16 | 55.62847 | 12.63899 | 25 ft | 3 kts | 62° |
| 2026-04-24 14:16 | 55.62843 | 12.63868 | 26 ft | 3 kts | 96° |
| 2026-04-24 14:16 | 55.62845 | 12.63846 | 29 ft | 1 kts | 104° |
| 2026-04-24 14:17 | 55.62846 | 12.63841 | 29 ft | 0 kts | 104° |
| 2026-04-24 14:19 | 55.62845 | 12.63845 | 29 ft | 3 kts | 104° |
| 2026-04-24 14:20 | 55.62835 | 12.63901 | 26 ft | 7 kts | 115° |
| 2026-04-24 14:20 | 55.62815 | 12.63946 | 24 ft | 7 kts | 148° |
| 2026-04-24 14:20 | 55.62762 | 12.63938 | 24 ft | 8 kts | 207° |
| 2026-04-24 14:20 | 55.62709 | 12.63878 | 24 ft | 10 kts | 213° |
| 2026-04-24 14:21 | 55.62651 | 12.63872 | 25 ft | 9 kts | 143° |
| 2026-04-24 14:21 | 55.62602 | 12.63995 | 24 ft | 10 kts | 123° |
| 2026-04-24 14:21 | 55.62564 | 12.64098 | 25 ft | 10 kts | 123° |
| 2026-04-24 14:21 | 55.62538 | 12.64169 | 25 ft | 10 kts | 123° |
| 2026-04-24 14:22 | 55.62496 | 12.64278 | 25 ft | 11 kts | 129° |
| 2026-04-24 14:22 | 55.62450 | 12.64384 | 25 ft | 11 kts | 127° |
| 2026-04-24 14:22 | 55.62355 | 12.64626 | 24 ft | 13 kts | 122° |
| 2026-04-24 14:23 | 55.62306 | 12.64759 | 25 ft | 13 kts | 123° |
| 2026-04-24 14:23 | 55.62257 | 12.64893 | 24 ft | 13 kts | 123° |
| 2026-04-24 14:23 | 55.62206 | 12.65029 | 25 ft | 13 kts | 123° |
| 2026-04-24 14:23 | 55.62144 | 12.65095 | 24 ft | 10 kts | 194° |
| 2026-04-24 14:24 | 55.62078 | 12.65025 | 24 ft | 12 kts | 214° |
| 2026-04-24 14:24 | 55.62006 | 12.64944 | 26 ft | 13 kts | 212° |
| 2026-04-24 14:24 | 55.61930 | 12.64857 | 24 ft | 13 kts | 213° |
| 2026-04-24 14:24 | 55.61852 | 12.64767 | 26 ft | 13 kts | 213° |
| 2026-04-24 14:25 | 55.61773 | 12.64676 | 24 ft | 15 kts | 213° |
| 2026-04-24 14:25 | 55.61677 | 12.64565 | 24 ft | 18 kts | 213° |
| 2026-04-24 14:25 | 55.61564 | 12.64435 | 24 ft | 21 kts | 213° |
| 2026-04-24 14:25 | 55.61438 | 12.64291 | 24 ft | 22 kts | 213° |
| 2026-04-24 14:26 | 55.61302 | 12.64135 | 26 ft | 24 kts | 212° |
| 2026-04-24 14:26 | 55.61160 | 12.63973 | 24 ft | 23 kts | 213° |
| 2026-04-24 14:26 | 55.61041 | 12.63834 | 25 ft | 18 kts | 213° |
| 2026-04-24 14:26 | 55.60945 | 12.63722 | 24 ft | 15 kts | 213° |
| 2026-04-24 14:27 | 55.60865 | 12.63634 | 25 ft | 13 kts | 212° |
| 2026-04-24 14:27 | 55.60796 | 12.63596 | 26 ft | 9 kts | 158° |
| 2026-04-24 14:27 | 55.60748 | 12.63663 | 24 ft | 8 kts | 135° |
| 2026-04-24 14:27 | 55.60714 | 12.63746 | 24 ft | 9 kts | 126° |
| 2026-04-24 14:28 | 55.60687 | 12.63838 | 25 ft | 8 kts | 91° |
| 2026-04-24 14:28 | 55.60713 | 12.63924 | 27 ft | 9 kts | 43° |
| 2026-04-24 14:28 | 55.60807 | 12.64068 | 26 ft | 39 kts | 41° |
| 2026-04-24 14:28 | 55.61177 | 12.64641 | 23 ft | 103 kts | 41° |
| 2026-04-24 14:29 | 55.61874 | 12.65713 | 30 ft | 160 kts | 41° |
| 2026-04-24 14:29 | 55.62776 | 12.67191 | 476 ft | 182 kts | 40° |
| 2026-04-24 14:29 | 55.63655 | 12.68712 | 1624 ft | 170 kts | 39° |
| 2026-04-24 14:29 | 55.64492 | 12.70248 | 2326 ft | 182 kts | 40° |
| 2026-04-24 14:30 | 55.65428 | 12.71903 | 2884 ft | 195 kts | 37° |
| 2026-04-24 14:30 | 55.66435 | 12.73493 | 3751 ft | 191 kts | 35° |
| 2026-04-24 14:30 | 55.67521 | 12.75068 | 4233 ft | 216 kts | 34° |
| 2026-04-24 14:30 | 55.68794 | 12.76748 | 4729 ft | 238 kts | 31° |
| 2026-04-24 14:31 | 55.70119 | 12.78759 | 5233 ft | 263 kts | 46° |
| 2026-04-24 14:31 | 55.70909 | 12.81729 | 6187 ft | 277 kts | 77° |
| 2026-04-24 14:31 | 55.70704 | 12.85173 | 7051 ft | 293 kts | 110° |
| 2026-04-24 14:31 | 55.69470 | 12.88103 | 7871 ft | 303 kts | 143° |
| 2026-04-24 14:32 | 55.67564 | 12.89633 | 8776 ft | 303 kts | 169° |
| 2026-04-24 14:32 | 55.65499 | 12.90426 | 9753 ft | 306 kts | 170° |
| 2026-04-24 14:32 | 55.63423 | 12.91343 | 10492 ft | 315 kts | 169° |
| 2026-04-24 14:32 | 55.61242 | 12.91920 | 11130 ft | 322 kts | 185° |
| 2026-04-24 14:33 | 55.59090 | 12.90974 | 11775 ft | 319 kts | 215° |
| 2026-04-24 14:33 | 55.57430 | 12.88508 | 12785 ft | 305 kts | 233° |
| 2026-04-24 14:33 | 55.56030 | 12.85679 | 13651 ft | 310 kts | 235° |
| 2026-04-24 14:33 | 55.54578 | 12.82779 | 14328 ft | 318 kts | 233° |
| 2026-04-24 14:34 | 55.54511 | 12.82649 | 14371 ft | 318 kts | 233° |
| 2026-04-24 14:34 | 55.53248 | 12.80410 | 15031 ft | 322 kts | 227° |
| 2026-04-24 14:34 | 55.51324 | 12.78188 | 15671 ft | 342 kts | 206° |
| 2026-04-24 14:34 | 55.48964 | 12.77473 | 16592 ft | 350 kts | 184° |
| 2026-04-24 14:35 | 55.46518 | 12.77922 | 17457 ft | 357 kts | 175° |
| 2026-04-24 14:35 | 55.44032 | 12.78693 | 18101 ft | 366 kts | 174° |
| 2026-04-24 14:35 | 55.41508 | 12.79414 | 18847 ft | 368 kts | 176° |
| 2026-04-24 14:35 | 55.38960 | 12.80020 | 19494 ft | 372 kts | 178° |
| 2026-04-24 14:36 | 55.36374 | 12.80580 | 20101 ft | 378 kts | 177° |
| 2026-04-24 14:36 | 55.33762 | 12.81516 | 20657 ft | 390 kts | 165° |
| 2026-04-24 14:36 | 55.31301 | 12.83628 | 21278 ft | 397 kts | 148° |
| 2026-04-24 14:36 | 55.29140 | 12.86656 | 22019 ft | 400 kts | 139° |
| 2026-04-24 14:37 | 55.27045 | 12.89951 | 22523 ft | 408 kts | 140° |
| 2026-04-24 14:37 | 55.24873 | 12.93163 | 23095 ft | 411 kts | 142° |
| 2026-04-24 14:37 | 55.22621 | 12.96296 | 23705 ft | 415 kts | 144° |
| 2026-04-24 14:37 | 55.20330 | 12.99400 | 24186 ft | 418 kts | 144° |
| 2026-04-24 14:38 | 55.18020 | 13.02534 | 24727 ft | 420 kts | 144° |
| 2026-04-24 14:38 | 55.15712 | 13.05696 | 25239 ft | 423 kts | 144° |
| 2026-04-24 14:38 | 55.13419 | 13.08859 | 25710 ft | 427 kts | 143° |
| 2026-04-24 14:38 | 55.11085 | 13.12083 | 26213 ft | 429 kts | 144° |
| 2026-04-24 14:39 | 55.08640 | 13.15055 | 26669 ft | 429 kts | 157° |
| 2026-04-24 14:39 | 55.05792 | 13.16602 | 26784 ft | 430 kts | 178° |
| 2026-04-24 14:39 | 55.02857 | 13.17147 | 27698 ft | 417 kts | 176° |
| 2026-04-24 14:39 | 55.00017 | 13.18093 | 28411 ft | 419 kts | 173° |
| 2026-04-24 14:40 | 54.97118 | 13.19194 | 28448 ft | 433 kts | 173° |
| 2026-04-24 14:40 | 54.94159 | 13.20237 | 28925 ft | 433 kts | 174° |
| 2026-04-24 14:40 | 54.91190 | 13.21184 | 29395 ft | 436 kts | 175° |
| 2026-04-24 14:40 | 54.88156 | 13.22085 | 29415 ft | 449 kts | 176° |
| 2026-04-24 14:41 | 54.85059 | 13.22995 | 29874 ft | 451 kts | 175° |
| 2026-04-24 14:41 | 54.81960 | 13.23928 | 30382 ft | 452 kts | 175° |
| 2026-04-24 14:41 | 54.78848 | 13.24869 | 30718 ft | 456 kts | 175° |
| 2026-04-24 14:41 | 54.75721 | 13.25821 | 31149 ft | 456 kts | 175° |
| 2026-04-24 14:42 | 54.72600 | 13.26776 | 31670 ft | 454 kts | 175° |
| 2026-04-24 14:42 | 54.69491 | 13.27724 | 32117 ft | 455 kts | 176° |
| 2026-04-24 14:42 | 54.66369 | 13.28671 | 32539 ft | 455 kts | 176° |
| 2026-04-24 14:42 | 54.63256 | 13.29614 | 33014 ft | 454 kts | 176° |
| 2026-04-24 14:43 | 54.60151 | 13.30553 | 33503 ft | 452 kts | 176° |
| 2026-04-24 14:43 | 54.57061 | 13.31478 | 33971 ft | 450 kts | 176° |
| 2026-04-24 14:43 | 54.54006 | 13.32400 | 34296 ft | 451 kts | 176° |
| 2026-04-24 14:43 | 54.50905 | 13.33341 | 34573 ft | 452 kts | 176° |
| 2026-04-24 14:44 | 54.47815 | 13.34279 | 34775 ft | 450 kts | 176° |
| 2026-04-24 14:44 | 54.44739 | 13.35213 | 34978 ft | 447 kts | 176° |
| 2026-04-24 14:44 | 54.41679 | 13.36135 | 35054 ft | 449 kts | 176° |
| 2026-04-24 14:45 | 54.35400 | 13.38004 | 35056 ft | 466 kts | 176° |
| 2026-04-24 14:45 | 54.28971 | 13.39939 | 35043 ft | 467 kts | 176° |
| 2026-04-24 14:46 | 54.22597 | 13.41867 | 35051 ft | 464 kts | 176° |
| 2026-04-24 14:46 | 54.16283 | 13.43755 | 35053 ft | 465 kts | 176° |
| 2026-04-24 14:47 | 54.09906 | 13.45659 | 35051 ft | 465 kts | 176° |
| 2026-04-24 14:47 | 54.03532 | 13.47561 | 35050 ft | 465 kts | 176° |
| 2026-04-24 14:48 | 53.97157 | 13.49463 | 35049 ft | 465 kts | 176° |
| 2026-04-24 14:48 | 53.90770 | 13.51363 | 35053 ft | 465 kts | 176° |
| 2026-04-24 14:49 | 53.84396 | 13.53258 | 35051 ft | 466 kts | 176° |
| 2026-04-24 14:49 | 53.78014 | 13.55158 | 35053 ft | 465 kts | 176° |
| 2026-04-24 14:50 | 53.71626 | 13.57045 | 35051 ft | 466 kts | 176° |
| 2026-04-24 14:50 | 53.65238 | 13.58933 | 35050 ft | 466 kts | 176° |
| 2026-04-24 14:51 | 53.58843 | 13.60820 | 35054 ft | 467 kts | 176° |
| 2026-04-24 14:51 | 53.52451 | 13.62713 | 35056 ft | 467 kts | 175° |
| 2026-04-24 14:52 | 53.46052 | 13.64606 | 35051 ft | 467 kts | 175° |
| 2026-04-24 14:52 | 53.39653 | 13.66488 | 35055 ft | 467 kts | 175° |
| 2026-04-24 14:53 | 53.33272 | 13.68356 | 35055 ft | 468 kts | 175° |
| 2026-04-24 14:53 | 53.26860 | 13.70231 | 35057 ft | 468 kts | 175° |
| 2026-04-24 14:54 | 53.20434 | 13.72110 | 35059 ft | 469 kts | 175° |
| 2026-04-24 14:54 | 53.14006 | 13.73992 | 35064 ft | 469 kts | 175° |
| 2026-04-24 14:55 | 53.08622 | 13.75567 | 35065 ft | 469 kts | 175° |
| 2026-04-24 14:55 | 53.01155 | 13.77745 | 35067 ft | 469 kts | 175° |
| 2026-04-24 14:56 | 52.94726 | 13.79617 | 35068 ft | 469 kts | 175° |
| 2026-04-24 14:56 | 52.88283 | 13.81478 | 35068 ft | 469 kts | 175° |
| 2026-04-24 14:57 | 52.81860 | 13.83344 | 35076 ft | 469 kts | 175° |
| 2026-04-24 14:57 | 52.75434 | 13.85211 | 35078 ft | 469 kts | 175° |
| 2026-04-24 14:58 | 52.68997 | 13.87068 | 35074 ft | 470 kts | 175° |
| 2026-04-24 14:58 | 52.62566 | 13.88925 | 35076 ft | 469 kts | 175° |
| 2026-04-24 14:59 | 52.56127 | 13.90784 | 35084 ft | 469 kts | 175° |
| 2026-04-24 14:59 | 52.49686 | 13.92636 | 35083 ft | 469 kts | 175° |
| 2026-04-24 15:00 | 52.43300 | 13.94473 | 35091 ft | 469 kts | 175° |
| 2026-04-24 15:00 | 52.36881 | 13.96314 | 35090 ft | 469 kts | 175° |
| 2026-04-24 15:01 | 52.30439 | 13.98159 | 35091 ft | 470 kts | 175° |
| 2026-04-24 15:01 | 52.24000 | 14.00001 | 35093 ft | 469 kts | 175° |
| 2026-04-24 15:02 | 52.17557 | 14.01847 | 35094 ft | 469 kts | 174° |
| 2026-04-24 15:02 | 52.11119 | 14.03680 | 35097 ft | 470 kts | 174° |
| 2026-04-24 15:03 | 52.05763 | 14.05206 | 35102 ft | 470 kts | 174° |
| 2026-04-24 15:03 | 51.98284 | 14.07338 | 35101 ft | 470 kts | 174° |
| 2026-04-24 15:04 | 51.91838 | 14.09171 | 35105 ft | 470 kts | 174° |
| 2026-04-24 15:04 | 51.85411 | 14.10990 | 35106 ft | 470 kts | 174° |
| 2026-04-24 15:05 | 51.78968 | 14.12813 | 35110 ft | 470 kts | 174° |
| 2026-04-24 15:05 | 51.72500 | 14.14643 | 35111 ft | 470 kts | 174° |
| 2026-04-24 15:06 | 51.66048 | 14.16466 | 35116 ft | 470 kts | 174° |
| 2026-04-24 15:06 | 51.60697 | 14.17978 | 35118 ft | 470 kts | 174° |
| 2026-04-24 15:07 | 51.53210 | 14.20089 | 35122 ft | 470 kts | 174° |
| 2026-04-24 15:07 | 51.47815 | 14.21608 | 35125 ft | 470 kts | 174° |
| 2026-04-24 15:08 | 51.40334 | 14.23707 | 35129 ft | 470 kts | 174° |
| 2026-04-24 15:08 | 51.34939 | 14.25214 | 35128 ft | 470 kts | 174° |
| 2026-04-24 15:09 | 51.28529 | 14.27012 | 35132 ft | 469 kts | 173° |
| 2026-04-24 15:09 | 51.22105 | 14.28814 | 35127 ft | 470 kts | 173° |
| 2026-04-24 15:10 | 51.15656 | 14.30614 | 35138 ft | 470 kts | 173° |
| 2026-04-24 15:10 | 51.09206 | 14.32412 | 35139 ft | 470 kts | 173° |
| 2026-04-24 15:11 | 51.02760 | 14.34207 | 35129 ft | 470 kts | 173° |
| 2026-04-24 15:11 | 50.96309 | 14.35995 | 35131 ft | 471 kts | 173° |
| 2026-04-24 15:12 | 50.89882 | 14.38003 | 35134 ft | 471 kts | 170° |
| 2026-04-24 15:12 | 50.80315 | 14.41637 | 35122 ft | 471 kts | 169° |
| 2026-04-24 15:13 | 50.73967 | 14.43996 | 35125 ft | 471 kts | 169° |
| 2026-04-24 15:13 | 50.67592 | 14.46327 | 35130 ft | 471 kts | 169° |
| 2026-04-24 15:14 | 50.61216 | 14.48672 | 35128 ft | 471 kts | 169° |
| 2026-04-24 15:14 | 50.54818 | 14.51022 | 35124 ft | 471 kts | 169° |
| 2026-04-24 15:15 | 50.48435 | 14.53435 | 35101 ft | 471 kts | 166° |
| 2026-04-24 15:15 | 50.45374 | 14.55245 | 35098 ft | 473 kts | 153° |
| 2026-04-24 15:15 | 50.42651 | 14.58151 | 35124 ft | 473 kts | 137° |
| 2026-04-24 15:16 | 50.38166 | 14.65734 | 35111 ft | 476 kts | 131° |
| 2026-04-24 15:16 | 50.33517 | 14.73102 | 35108 ft | 475 kts | 136° |
| 2026-04-24 15:17 | 50.28701 | 14.80039 | 35100 ft | 473 kts | 136° |
| 2026-04-24 15:17 | 50.23903 | 14.87082 | 35102 ft | 473 kts | 135° |
| 2026-04-24 15:18 | 50.19136 | 14.94179 | 35100 ft | 474 kts | 135° |
| 2026-04-24 15:18 | 50.14361 | 15.01257 | 35101 ft | 473 kts | 135° |
| 2026-04-24 15:19 | 50.09585 | 15.08315 | 35093 ft | 473 kts | 135° |
| 2026-04-24 15:19 | 50.04806 | 15.15374 | 35090 ft | 473 kts | 135° |
| 2026-04-24 15:20 | 50.00065 | 15.22373 | 35070 ft | 473 kts | 135° |
| 2026-04-24 15:20 | 49.95251 | 15.29464 | 35071 ft | 473 kts | 135° |
| 2026-04-24 15:21 | 49.90469 | 15.36504 | 35067 ft | 473 kts | 135° |
| 2026-04-24 15:21 | 49.85697 | 15.43517 | 35054 ft | 473 kts | 135° |
| 2026-04-24 15:22 | 49.80954 | 15.50490 | 35069 ft | 473 kts | 134° |
| 2026-04-24 15:23 | 49.73919 | 15.60809 | 34141 ft | 457 kts | 134° |
| 2026-04-24 15:23 | 49.69326 | 15.67548 | 32597 ft | 450 kts | 134° |
| 2026-04-24 15:23 | 49.67078 | 15.70843 | 31986 ft | 443 kts | 134° |
| 2026-04-24 15:24 | 49.60491 | 15.80497 | 30079 ft | 427 kts | 135° |
| 2026-04-24 15:25 | 49.56903 | 15.85735 | 28522 ft | 429 kts | 135° |
| 2026-04-24 15:25 | 49.51862 | 15.93101 | 26655 ft | 423 kts | 135° |
| 2026-04-24 15:26 | 49.45543 | 16.02314 | 24557 ft | 411 kts | 135° |
| 2026-04-24 15:27 | 49.39421 | 16.11241 | 22439 ft | 401 kts | 135° |
| 2026-04-24 15:27 | 49.33456 | 16.19919 | 20466 ft | 387 kts | 135° |
| 2026-04-24 15:28 | 49.24625 | 16.28448 | 18103 ft | 371 kts | 156° |
| 2026-04-24 15:29 | 49.19976 | 16.31698 | 16838 ft | 364 kts | 154° |
| 2026-04-24 15:30 | 49.13248 | 16.36691 | 15069 ft | 354 kts | 154° |
| 2026-04-24 15:31 | 49.04671 | 16.42996 | 13418 ft | 323 kts | 155° |
| 2026-04-24 15:32 | 48.96544 | 16.48965 | 13420 ft | 339 kts | 154° |
| 2026-04-24 15:33 | 48.88436 | 16.54907 | 13526 ft | 336 kts | 154° |
| 2026-04-24 15:33 | 48.82088 | 16.59551 | 13026 ft | 338 kts | 154° |
| 2026-04-24 15:34 | 48.77756 | 16.62290 | 11915 ft | 336 kts | 165° |
| 2026-04-24 15:35 | 48.70979 | 16.64561 | 10186 ft | 330 kts | 170° |
| 2026-04-24 15:35 | 48.66524 | 16.66033 | 8969 ft | 326 kts | 169° |
| 2026-04-24 15:35 | 48.64314 | 16.66780 | 8362 ft | 323 kts | 169° |
| 2026-04-24 15:36 | 48.62133 | 16.67517 | 7773 ft | 321 kts | 169° |
| 2026-04-24 15:36 | 48.57855 | 16.68270 | 7108 ft | 293 kts | 195° |
| 2026-04-24 15:36 | 48.56048 | 16.67144 | 6964 ft | 277 kts | 217° |
| 2026-04-24 15:37 | 48.54482 | 16.65457 | 6758 ft | 277 kts | 221° |
| 2026-04-24 15:37 | 48.52944 | 16.63701 | 6500 ft | 276 kts | 221° |
| 2026-04-24 15:37 | 48.51430 | 16.61996 | 6263 ft | 274 kts | 221° |
| 2026-04-24 15:37 | 48.49904 | 16.60307 | 6042 ft | 271 kts | 220° |
| 2026-04-24 15:38 | 48.48365 | 16.58627 | 5969 ft | 275 kts | 219° |
| 2026-04-24 15:38 | 48.46678 | 16.57288 | 5967 ft | 279 kts | 201° |
| 2026-04-24 15:38 | 48.44725 | 16.57019 | 6005 ft | 287 kts | 177° |
| 2026-04-24 15:38 | 48.42760 | 16.57651 | 5987 ft | 291 kts | 166° |
| 2026-04-24 15:39 | 48.40826 | 16.58548 | 5988 ft | 291 kts | 165° |
| 2026-04-24 15:39 | 48.38995 | 16.59399 | 5991 ft | 291 kts | 166° |
| 2026-04-24 15:39 | 48.37049 | 16.60255 | 5990 ft | 293 kts | 167° |
| 2026-04-24 15:39 | 48.35090 | 16.61088 | 5989 ft | 291 kts | 167° |
| 2026-04-24 15:40 | 48.33148 | 16.61910 | 5992 ft | 288 kts | 167° |
| 2026-04-24 15:40 | 48.31201 | 16.62734 | 5999 ft | 292 kts | 167° |
| 2026-04-24 15:40 | 48.29252 | 16.63565 | 5994 ft | 290 kts | 167° |
| 2026-04-24 15:40 | 48.27293 | 16.64398 | 6002 ft | 292 kts | 167° |
| 2026-04-24 15:41 | 48.25347 | 16.65216 | 5995 ft | 292 kts | 167° |
| 2026-04-24 15:41 | 48.23382 | 16.66042 | 5999 ft | 290 kts | 167° |
| 2026-04-24 15:41 | 48.21447 | 16.66858 | 5999 ft | 291 kts | 167° |
| 2026-04-24 15:41 | 48.19498 | 16.67677 | 6001 ft | 290 kts | 167° |
| 2026-04-24 15:42 | 48.17555 | 16.68486 | 5996 ft | 289 kts | 167° |
| 2026-04-24 15:42 | 48.15637 | 16.69283 | 6001 ft | 289 kts | 167° |
| 2026-04-24 15:42 | 48.13675 | 16.70114 | 6003 ft | 290 kts | 167° |
| 2026-04-24 15:42 | 48.11759 | 16.70907 | 5995 ft | 289 kts | 167° |
| 2026-04-24 15:43 | 48.09804 | 16.71712 | 6001 ft | 292 kts | 167° |
| 2026-04-24 15:43 | 48.07862 | 16.72524 | 6001 ft | 290 kts | 167° |
| 2026-04-24 15:43 | 48.05907 | 16.73337 | 5997 ft | 288 kts | 167° |
| 2026-04-24 15:43 | 48.04002 | 16.74132 | 5986 ft | 279 kts | 167° |
| 2026-04-24 15:44 | 48.02172 | 16.74900 | 5982 ft | 269 kts | 167° |
| 2026-04-24 15:44 | 48.00374 | 16.75643 | 5991 ft | 267 kts | 167° |
| 2026-04-24 15:44 | 47.98582 | 16.76357 | 5974 ft | 265 kts | 170° |
| 2026-04-24 15:44 | 47.96799 | 16.76544 | 5636 ft | 254 kts | 194° |
| 2026-04-24 15:45 | 47.95264 | 16.75411 | 5144 ft | 245 kts | 230° |
| 2026-04-24 15:45 | 47.94408 | 16.73291 | 4684 ft | 238 kts | 252° |
| 2026-04-24 15:45 | 47.93871 | 16.70957 | 4213 ft | 238 kts | 257° |
| 2026-04-24 15:45 | 47.93620 | 16.68551 | 3801 ft | 231 kts | 276° |
| 2026-04-24 15:46 | 47.94097 | 16.66366 | 3501 ft | 219 kts | 308° |
| 2026-04-24 15:46 | 47.95272 | 16.65028 | 3255 ft | 209 kts | 331° |
| 2026-04-24 15:46 | 47.96561 | 16.64182 | 3063 ft | 200 kts | 342° |
| 2026-04-24 15:46 | 47.97897 | 16.63748 | 2853 ft | 191 kts | 345° |
| 2026-04-24 15:47 | 47.99102 | 16.63286 | 2609 ft | 168 kts | 340° |
| 2026-04-24 15:47 | 48.00153 | 16.62805 | 2371 ft | 145 kts | 340° |
| 2026-04-24 15:47 | 48.01042 | 16.62425 | 2174 ft | 124 kts | 340° |
| 2026-04-24 15:47 | 48.01902 | 16.62066 | 2071 ft | 136 kts | 341° |
| 2026-04-24 15:48 | 48.02807 | 16.61700 | 1871 ft | 134 kts | 341° |
| 2026-04-24 15:48 | 48.03714 | 16.61323 | 1674 ft | 134 kts | 341° |
| 2026-04-24 15:48 | 48.04609 | 16.60941 | 1504 ft | 133 kts | 340° |
| 2026-04-24 15:48 | 48.05489 | 16.60569 | 1312 ft | 128 kts | 340° |
| 2026-04-24 15:49 | 48.06355 | 16.60213 | 1094 ft | 127 kts | 339° |
| 2026-04-24 15:49 | 48.07216 | 16.59841 | 950 ft | 132 kts | 339° |
| 2026-04-24 15:49 | 48.08104 | 16.59464 | 776 ft | 136 kts | 339° |
| 2026-04-24 15:49 | 48.09000 | 16.59082 | 636 ft | 129 kts | 338° |
| 2026-04-24 15:50 | 48.09743 | 16.58760 | 615 ft | 85 kts | 346° |
| 2026-04-24 15:50 | 48.10123 | 16.58610 | 620 ft | 40 kts | 341° |
| 2026-04-24 15:50 | 48.10333 | 16.58495 | 610 ft | 25 kts | 328° |
| 2026-04-24 15:50 | 48.10428 | 16.58347 | 624 ft | 18 kts | 301° |
| 2026-04-24 15:51 | 48.10476 | 16.58217 | 615 ft | 11 kts | 298° |
| 2026-04-24 15:51 | 48.10529 | 16.58153 | 615 ft | 9 kts | 339° |
| 2026-04-24 15:51 | 48.10592 | 16.58125 | 612 ft | 10 kts | 344° |
| 2026-04-24 15:51 | 48.10660 | 16.58095 | 613 ft | 10 kts | 343° |
| 2026-04-24 15:52 | 48.10707 | 16.58076 | 615 ft | 11 kts | 346° |
| 2026-04-24 15:52 | 48.10803 | 16.58036 | 618 ft | 11 kts | 343° |
| 2026-04-24 15:52 | 48.10876 | 16.58005 | 613 ft | 11 kts | 345° |
| 2026-04-24 15:52 | 48.10942 | 16.57955 | 618 ft | 11 kts | 317° |
| 2026-04-24 15:53 | 48.10994 | 16.57877 | 613 ft | 11 kts | 314° |
| 2026-04-24 15:53 | 48.11042 | 16.57788 | 621 ft | 11 kts | 298° |
| 2026-04-24 15:53 | 48.11077 | 16.57681 | 616 ft | 12 kts | 296° |
| 2026-04-24 15:53 | 48.11112 | 16.57572 | 610 ft | 12 kts | 295° |
| 2026-04-24 15:54 | 48.11149 | 16.57457 | 620 ft | 13 kts | 296° |
| 2026-04-24 15:54 | 48.11175 | 16.57378 | 619 ft | 13 kts | 296° |
| 2026-04-24 15:54 | 48.11215 | 16.57257 | 615 ft | 13 kts | 295° |
| 2026-04-24 15:54 | 48.11270 | 16.57094 | 614 ft | 13 kts | 298° |
| 2026-04-24 15:55 | 48.11309 | 16.56971 | 614 ft | 13 kts | 291° |
| 2026-04-24 15:55 | 48.11335 | 16.56887 | 614 ft | 13 kts | 296° |
| 2026-04-24 15:55 | 48.11377 | 16.56758 | 621 ft | 14 kts | 296° |
| 2026-04-24 15:55 | 48.11422 | 16.56621 | 615 ft | 15 kts | 296° |
| 2026-04-24 15:56 | 48.11468 | 16.56478 | 618 ft | 15 kts | 296° |
| 2026-04-24 15:56 | 48.11515 | 16.56333 | 610 ft | 16 kts | 295° |
| 2026-04-24 15:56 | 48.11564 | 16.56185 | 614 ft | 16 kts | 296° |
| 2026-04-24 15:56 | 48.11613 | 16.56035 | 614 ft | 16 kts | 296° |
| 2026-04-24 15:57 | 48.11662 | 16.55884 | 622 ft | 16 kts | 295° |
| 2026-04-24 15:57 | 48.11711 | 16.55732 | 612 ft | 16 kts | 296° |
| 2026-04-24 15:57 | 48.11760 | 16.55604 | 618 ft | 11 kts | 316° |
| 2026-04-24 15:57 | 48.11824 | 16.55586 | 620 ft | 9 kts | 354° |
| 2026-04-24 15:58 | 48.11870 | 16.55530 | 617 ft | 9 kts | 297° |
| 2026-04-24 15:58 | 48.11898 | 16.55453 | 614 ft | 8 kts | 329° |
| 2026-04-24 15:58 | 48.11952 | 16.55465 | 619 ft | 9 kts | 24° |
| 2026-04-24 15:58 | 48.11989 | 16.55482 | 610 ft | 3 kts | 337° |
| 2026-04-24 15:59 | 48.12005 | 16.55443 | 617 ft | 4 kts | 298° |
| 2026-04-24 15:59 | 48.12013 | 16.55422 | 616 ft | 0 kts | 297° |